Time;durP1;ratioP1;P1;durP2;ratioP2;P2;SDS_P1;SDS_P2;PMS_P1;PMS_P2;Temp;Humidity;BMP_temperature;BMP_pressure;BME280_temperature;BME280_humidity;BME280_pressure;Samples;Min_cycle;Max_cycle;Signal;HPM_P1;HPM_P2
2023/05/15 00:01:11;;;;;;;;;;;;;;;15.51;79.70;99734.53;5326971;32;34970;-74
2023/05/15 00:04:13;;;;;;;;;;;;;;;15.65;78.83;99737.13;5315824;32;35311;-64
2023/05/15 00:07:15;;;;;;;;;;;;;;;15.42;79.73;99736.03;5320876;32;35552;-73
2023/05/15 00:10:17;;;;;;;;;;;;;;;15.24;81.50;99737.28;5327417;32;48108;-65
2023/05/15 00:13:19;;;;;;;;;;;;;;;15.78;79.74;99738.88;5322878;32;35156;-64
2023/05/15 00:16:21;;;;;;;;;;;;;;;15.77;78.16;99730.06;5327188;32;34097;-64
2023/05/15 00:19:23;;;;;;;;;;;;;;;16.12;77.31;99724.91;5336654;32;35600;-65
2023/05/15 00:22:25;;;;;;;;;;;;;;;16.01;76.69;99732.78;5327074;32;34916;-64
2023/05/15 00:25:27;;;;;;;;;;;;;;;16.47;74.92;99734.75;5328009;32;35695;-73
2023/05/15 00:28:29;;;;;;;;;;;;;;;16.45;75.14;99742.81;5335058;32;35438;-73
2023/05/15 00:31:32;;;;;;;;;;;;;;;16.35;75.87;99751.53;5329852;32;34841;-64
2023/05/15 00:34:34;;;;;;;;;;;;;;;16.63;73.87;99751.22;5325641;32;34035;-65
2023/05/15 00:37:39;;;;;;;;;;;;;;;16.53;73.84;99758.16;5312590;32;36204;-65
2023/05/15 00:40:41;;;;;;;;;;;;;;;15.34;79.40;99751.59;5334328;32;35366;-65
2023/05/15 00:43:43;;;;;;;;;;;;;;;15.50;80.69;99748.72;5327523;32;34804;-73
2023/05/15 00:46:45;;;;;;;;;;;;;;;15.63;79.41;99743.47;5306705;32;35107;-62
2023/05/15 00:49:48;;;;;;;;;;;;;;;15.41;80.32;99736.13;5306827;32;46917;-64
2023/05/15 00:52:50;;;;;;;;;;;;;;;15.48;81.34;99734.75;5324188;32;35144;-65
2023/05/15 00:55:53;;;;;;;;;;;;;;;15.54;80.40;99730.84;5335762;32;35447;-64
2023/05/15 00:58:55;;;;;;;;;;;;;;;15.89;78.08;99729.22;5332183;32;35095;-66
2023/05/15 01:01:57;;;;;;;;;;;;;;;15.72;78.64;99737.53;5343804;32;35884;-65
2023/05/15 01:04:59;;;;;;;;;;;;;;;16.10;77.59;99718.87;5313056;32;34823;-74
2023/05/15 01:08:17;;;;;;;;;;;;;;;15.42;80.71;99724.59;5326083;32;36497;-66
2023/05/15 01:11:18;;;;;;;;;;;;;;;15.61;80.38;99722.34;5335103;32;46717;-65
2023/05/15 01:14:20;;;;;;;;;;;;;;;15.48;79.60;99708.28;5326426;32;35053;-73
2023/05/15 01:17:22;;;;;;;;;;;;;;;15.13;81.79;99708.94;5321077;32;35517;-73
2023/05/15 01:20:24;;;;;;;;;;;;;;;15.18;82.12;99698.84;5322759;32;34947;-73
2023/05/15 01:23:32;;;;;;;;;;;;;;;15.86;79.14;99705.59;5319666;32;34413;-65
2023/05/15 01:26:40;;;;;;;;;;;;;;;16.18;76.69;99711.22;5330956;32;35133;-73
2023/05/15 01:29:55;;;;;;;;;;;;;;;15.64;78.71;99702.75;5326563;32;34556;-74
2023/05/15 01:33:16;;;;;;;;;;;;;;;15.18;81.60;99696.19;5334391;32;35113;-66
2023/05/15 01:36:20;;;;;;;;;;;;;;;15.05;82.02;99695.34;5302705;32;46389;-65
2023/05/15 01:39:24;;;;;;;;;;;;;;;15.21;81.43;99699.62;5315651;32;35283;-73
2023/05/15 01:42:29;;;;;;;;;;;;;;;15.11;83.40;99700.22;5315792;32;35535;-72
2023/05/15 01:45:31;;;;;;;;;;;;;;;16.10;77.50;99700.34;5311813;32;35389;-64
2023/05/15 01:48:35;;;;;;;;;;;;;;;15.51;78.43;99693.97;5300132;32;36623;-65
2023/05/15 01:51:37;;;;;;;;;;;;;;;15.41;80.02;99669.94;5327202;32;36304;-73
2023/05/15 01:54:39;;;;;;;;;;;;;;;14.85;83.51;99661.47;5320472;32;34864;-73
2023/05/15 01:57:41;;;;;;;;;;;;;;;15.22;80.13;99656.31;5309212;32;34987;-73
2023/05/15 02:00:43;;;;;;;;;;;;;;;15.73;77.49;99653.59;5328981;32;35314;-67
2023/05/15 02:03:45;;;;;;;;;;;;;;;15.30;77.31;99653.94;5333432;32;34906;-74
2023/05/15 02:06:49;;;;;;;;;;;;;;;15.08;81.42;99658.09;5314283;32;44714;-73
2023/05/15 02:09:51;;;;;;;;;;;;;;;15.20;79.36;99668.78;5336887;32;34297;-66
2023/05/15 02:12:53;;;;;;;;;;;;;;;15.33;80.71;99669.62;5313011;32;34836;-74
2023/05/15 02:15:55;;;;;;;;;;;;;;;15.84;77.27;99680.16;5334367;32;34981;-71
2023/05/15 02:18:57;;;;;;;;;;;;;;;15.25;78.48;99693.12;5312801;32;34886;-74
2023/05/15 02:21:59;;;;;;;;;;;;;;;15.51;79.47;99689.50;5328714;32;35526;-64
2023/05/15 02:25:01;;;;;;;;;;;;;;;16.09;75.41;99684.53;5317770;32;35137;-64
2023/05/15 02:28:03;;;;;;;;;;;;;;;16.46;72.87;99695.91;5325799;32;36153;-73
2023/05/15 02:31:07;;;;;;;;;;;;;;;14.92;80.10;99710.38;5320291;32;35356;-73
2023/05/15 02:34:29;;;;;;;;;;;;;;;15.91;76.17;99698.16;5309092;32;35209;-73
2023/05/15 02:37:32;;;;;;;;;;;;;;;16.22;74.53;99717.13;5317214;32;34606;-72
2023/05/15 02:40:35;;;;;;;;;;;;;;;16.24;73.82;99728.47;5314388;32;34624;-73
2023/05/15 02:43:37;;;;;;;;;;;;;;;15.95;75.33;99715.53;5311857;32;35958;-64
2023/05/15 02:46:40;;;;;;;;;;;;;;;15.70;76.57;99708.47;5318331;32;34284;-64
2023/05/15 02:49:42;;;;;;;;;;;;;;;15.03;80.17;99715.78;5297418;32;35346;-73
2023/05/15 02:52:44;;;;;;;;;;;;;;;14.79;82.32;99715.62;5321161;32;35788;-64
2023/05/15 02:55:46;;;;;;;;;;;;;;;15.12;80.49;99701.91;5323409;32;46095;-71
2023/05/15 02:58:48;;;;;;;;;;;;;;;15.52;78.51;99696.53;5333122;32;35658;-64
2023/05/15 03:01:50;;;;;;;;;;;;;;;15.22;80.35;99709.25;5327243;32;35561;-72
2023/05/15 03:04:52;;;;;;;;;;;;;;;15.00;82.06;99705.41;5322910;32;35565;-73
2023/05/15 03:07:56;;;;;;;;;;;;;;;15.20;82.47;99687.31;5336991;32;35099;-65
2023/05/15 03:10:58;;;;;;;;;;;;;;;15.70;78.71;99689.09;5310739;32;34611;-66
2023/05/15 03:14:00;;;;;;;;;;;;;;;15.91;76.33;99686.72;5339260;32;34200;-65
2023/05/15 03:17:02;;;;;;;;;;;;;;;15.49;78.28;99694.06;5324828;32;34654;-73
2023/05/15 03:20:04;;;;;;;;;;;;;;;15.67;77.85;99692.81;5311725;32;35414;-73
2023/05/15 03:23:06;;;;;;;;;;;;;;;16.14;75.32;99672.63;5330105;32;35363;-64
2023/05/15 03:26:08;;;;;;;;;;;;;;;15.94;75.82;99660.81;5324259;32;34963;-66
2023/05/15 03:29:10;;;;;;;;;;;;;;;15.89;77.24;99664.75;5334275;32;35575;-73
2023/05/15 03:32:12;;;;;;;;;;;;;;;15.89;76.33;99654.16;5324775;32;34871;-65
2023/05/15 03:35:14;;;;;;;;;;;;;;;16.06;75.73;99648.50;5316720;32;35364;-75
2023/05/15 03:38:16;;;;;;;;;;;;;;;16.77;72.03;99636.13;5315540;32;42460;-64
2023/05/15 03:41:20;;;;;;;;;;;;;;;16.56;72.05;99617.34;5328847;32;36338;-72
2023/05/15 03:44:22;;;;;;;;;;;;;;;15.35;79.99;99623.56;5330062;32;35375;-72
2023/05/15 03:47:24;;;;;;;;;;;;;;;16.30;74.23;99640.53;5313243;32;34926;-65
2023/05/15 03:50:26;;;;;;;;;;;;;;;15.96;75.59;99634.22;5324834;32;34530;-72
2023/05/15 03:53:28;;;;;;;;;;;;;;;15.22;80.06;99628.03;5324446;32;34751;-73
2023/05/15 03:56:30;;;;;;;;;;;;;;;15.84;78.10;99608.59;5333239;32;35459;-65
2023/05/15 03:59:32;;;;;;;;;;;;;;;15.98;76.40;99627.84;5324539;32;35133;-65
2023/05/15 04:02:34;;;;;;;;;;;;;;;16.65;72.79;99632.56;5328672;32;35330;-65
2023/05/15 04:05:36;;;;;;;;;;;;;;;15.97;75.92;99627.94;5315373;32;37670;-74
2023/05/15 04:08:38;;;;;;;;;;;;;;;15.47;79.37;99618.34;5325212;32;35870;-65
2023/05/15 04:11:42;;;;;;;;;;;;;;;15.42;78.86;99626.63;5333764;32;34483;-65
2023/05/15 04:14:44;;;;;;;;;;;;;;;15.90;77.72;99614.28;5330194;32;34574;-74
2023/05/15 04:17:47;;;;;;;;;;;;;;;16.30;74.98;99606.06;5333832;32;44549;-73
2023/05/15 04:20:49;;;;;;;;;;;;;;;15.56;78.32;99615.88;5325483;32;35616;-73
2023/05/15 04:23:51;;;;;;;;;;;;;;;15.84;77.66;99608.59;5329343;32;34611;-64
2023/05/15 04:26:52;;;;;;;;;;;;;;;15.02;81.90;99618.84;5333050;32;35854;-64
2023/05/15 04:29:55;;;;;;;;;;;;;;;15.21;82.32;99620.19;5326002;32;35381;-67
2023/05/15 04:33:02;;;;;;;;;;;;;;;15.40;80.35;99615.28;5334984;32;35493;-73
2023/05/15 04:36:08;;;;;;;;;;;;;;;15.23;81.97;99607.69;5303805;32;35497;-73
2023/05/15 04:39:11;;;;;;;;;;;;;;;15.56;81.38;99609.75;5319941;32;35626;-73
2023/05/15 04:42:13;;;;;;;;;;;;;;;15.80;81.08;99620.41;5326778;32;35507;-73
2023/05/15 04:45:15;;;;;;;;;;;;;;;16.32;77.30;99628.00;5313568;32;34913;-64
2023/05/15 04:48:18;;;;;;;;;;;;;;;15.96;77.98;99629.75;5315755;32;46964;-65
2023/05/15 04:51:19;;;;;;;;;;;;;;;16.19;77.38;99630.72;5311496;32;35128;-75
2023/05/15 04:54:21;;;;;;;;;;;;;;;16.52;74.96;99639.75;5335543;32;34284;-66
2023/05/15 04:57:24;;;;;;;;;;;;;;;17.07;71.30;99638.22;5311312;32;35351;-66
2023/05/15 05:00:27;;;;;;;;;;;;;;;16.52;74.09;99650.37;5334344;32;34941;-66
2023/05/15 05:03:29;;;;;;;;;;;;;;;16.06;76.31;99677.66;5325680;32;35103;-74
2023/05/15 05:06:31;;;;;;;;;;;;;;;16.04;77.82;99674.28;5325403;32;35380;-74
2023/05/15 05:09:33;;;;;;;;;;;;;;;15.35;81.84;99678.31;5334987;32;34655;-75
2023/05/15 05:12:35;;;;;;;;;;;;;;;15.46;80.66;99675.78;5319392;32;34670;-66
2023/05/15 05:15:37;;;;;;;;;;;;;;;15.37;82.38;99682.53;5334731;32;35406;-73
2023/05/15 05:18:39;;;;;;;;;;;;;;;15.68;80.44;99675.94;5324255;32;34893;-65
2023/05/15 05:21:41;;;;;;;;;;;;;;;15.49;82.14;99678.19;5331757;32;34860;-74
2023/05/15 05:24:43;;;;;;;;;;;;;;;15.41;81.58;99691.97;5326615;32;35832;-65
2023/05/15 05:27:45;;;;;;;;;;;;;;;15.61;80.63;99693.22;5308223;32;44707;-71
2023/05/15 05:30:47;;;;;;;;;;;;;;;15.38;82.16;99691.31;5331011;32;44814;-77
2023/05/15 05:33:51;;;;;;;;;;;;;;;16.15;79.33;99687.56;5323864;32;33911;-65
2023/05/15 05:36:53;;;;;;;;;;;;;;;15.54;80.35;99686.66;5312683;32;34584;-83
2023/05/15 05:39:55;;;;;;;;;;;;;;;15.68;80.54;99678.59;5313158;32;36244;-80
2023/05/15 05:42:58;;;;;;;;;;;;;;;15.95;78.09;99664.31;5332309;32;35353;-67
2023/05/15 05:46:01;;;;;;;;;;;;;;;15.75;80.07;99676.38;5323583;32;35816;-67
2023/05/15 05:49:03;;;;;;;;;;;;;;;16.67;75.58;99673.06;5294133;32;34909;-66
2023/05/15 05:52:08;;;;;;;;;;;;;;;16.75;74.83;99680.50;5327973;32;34676;-73
2023/05/15 05:55:10;;;;;;;;;;;;;;;15.79;79.70;99691.09;5324740;32;34857;-72
2023/05/15 05:58:12;;;;;;;;;;;;;;;16.52;76.47;99690.16;5330810;32;34740;-73
2023/05/15 06:01:25;;;;;;;;;;;;;;;16.17;75.40;99698.94;5317502;32;44386;-65
2023/05/15 06:04:27;;;;;;;;;;;;;;;15.98;77.12;99707.38;5329751;32;34100;-72
2023/05/15 06:07:30;;;;;;;;;;;;;;;16.61;76.11;99699.22;5316062;32;34815;-63
2023/05/15 06:10:32;;;;;;;;;;;;;;;17.32;71.68;99691.13;5313898;32;34604;-73
2023/05/15 06:13:34;;;;;;;;;;;;;;;18.11;68.81;99693.75;5329122;32;35875;-70
2023/05/15 06:16:36;;;;;;;;;;;;;;;16.88;75.18;99697.19;5309596;32;35768;-72
2023/05/15 06:19:39;;;;;;;;;;;;;;;18.11;70.44;99691.09;5332502;32;35647;-61
2023/05/15 06:22:41;;;;;;;;;;;;;;;17.84;70.26;99708.28;5324382;32;34535;-63
2023/05/15 06:25:43;;;;;;;;;;;;;;;16.75;73.37;99720.31;5324178;32;34811;-72
2023/05/15 06:28:45;;;;;;;;;;;;;;;17.05;73.92;99719.78;5330252;32;46367;-68
2023/05/15 06:31:47;;;;;;;;;;;;;;;17.51;71.02;99721.53;5324557;32;34322;-76
2023/05/15 06:34:49;;;;;;;;;;;;;;;17.72;68.79;99721.72;5315483;32;34674;-66
2023/05/15 06:37:52;;;;;;;;;;;;;;;16.90;71.75;99716.50;5309176;32;34650;-75
2023/05/15 06:40:59;;;;;;;;;;;;;;;18.31;66.94;99708.91;5330060;32;34165;-74
2023/05/15 06:44:01;;;;;;;;;;;;;;;17.60;69.67;99718.16;5318482;32;36126;-68
2023/05/15 06:47:04;;;;;;;;;;;;;;;17.52;69.92;99699.34;5318178;32;34268;-66
2023/05/15 06:50:07;;;;;;;;;;;;;;;17.81;70.28;99687.25;5309121;32;34442;-64
2023/05/15 06:53:08;;;;;;;;;;;;;;;18.88;65.86;99678.44;5330946;32;34307;-62
2023/05/15 06:56:12;;;;;;;;;;;;;;;19.30;63.34;99674.91;5331333;32;37344;-69
2023/05/15 06:59:14;;;;;;;;;;;;;;;19.23;62.77;99676.41;5317342;32;34259;-74
2023/05/15 07:02:16;;;;;;;;;;;;;;;18.03;69.40;99675.75;5322931;32;46709;-77
2023/05/15 07:05:20;;;;;;;;;;;;;;;17.94;67.26;99683.63;5312512;32;34341;-63
2023/05/15 07:08:22;;;;;;;;;;;;;;;17.75;69.26;99687.75;5327934;32;34467;-65
2023/05/15 07:11:24;;;;;;;;;;;;;;;17.82;68.56;99688.94;5338536;32;34418;-80
2023/05/15 07:14:27;;;;;;;;;;;;;;;19.07;64.12;99684.88;5328226;32;34443;-70
2023/05/15 07:17:30;;;;;;;;;;;;;;;19.25;61.89;99687.75;5333986;32;35373;-64
2023/05/15 07:20:32;;;;;;;;;;;;;;;18.19;66.49;99693.09;5321764;32;34980;-64
2023/05/15 07:23:37;;;;;;;;;;;;;;;19.40;62.20;99692.62;5316471;32;34273;-77
2023/05/15 07:26:39;;;;;;;;;;;;;;;20.23;58.41;99704.84;5310595;32;35649;-78
2023/05/15 07:29:58;;;;;;;;;;;;;;;19.84;59.65;99708.41;5324185;32;36309;-74
2023/05/15 07:33:00;;;;;;;;;;;;;;;19.79;59.63;99716.81;5331049;32;34398;-75
2023/05/15 07:36:02;;;;;;;;;;;;;;;19.34;61.19;99725.13;5294104;32;34137;-76
2023/05/15 07:39:04;;;;;;;;;;;;;;;18.29;66.87;99725.94;5332810;32;34298;-85
2023/05/15 07:42:07;;;;;;;;;;;;;;;18.50;66.17;99710.06;5322304;32;34633;-72
2023/05/15 07:45:15;;;;;;;;;;;;;;;19.07;63.05;99688.37;5327051;32;34701;-65
2023/05/15 07:48:20;;;;;;;;;;;;;;;19.35;62.75;99688.66;5312887;32;44899;-65
2023/05/15 07:51:22;;;;;;;;;;;;;;;19.26;62.84;99687.66;5321267;32;35143;-74
2023/05/15 07:54:27;;;;;;;;;;;;;;;20.04;58.99;99683.47;5323040;32;33090;-68
2023/05/15 07:57:30;;;;;;;;;;;;;;;18.69;65.23;99688.13;5308695;32;35597;-66
2023/05/15 08:00:32;;;;;;;;;;;;;;;19.42;62.83;99676.50;5338077;32;34513;-63
2023/05/15 08:03:35;;;;;;;;;;;;;;;19.56;62.53;99693.94;5319665;32;35003;-73
2023/05/15 08:06:37;;;;;;;;;;;;;;;19.30;63.50;99710.38;5330720;32;34775;-63
2023/05/15 08:09:45;;;;;;;;;;;;;;;20.77;58.54;99716.00;5326428;32;34315;-70
2023/05/15 08:12:47;;;;;;;;;;;;;;;20.96;57.46;99707.97;5329427;32;45126;-65
2023/05/15 08:15:52;;;;;;;;;;;;;;;22.17;53.68;99708.00;5324528;32;34898;-66
2023/05/15 08:18:59;;;;;;;;;;;;;;;22.67;50.44;99707.50;5328238;32;34450;-63
2023/05/15 08:22:02;;;;;;;;;;;;;;;22.26;52.18;99713.44;5331242;32;34184;-61
2023/05/15 08:25:05;;;;;;;;;;;;;;;21.40;55.91;99705.66;5312518;32;34322;-63
2023/05/15 08:28:07;;;;;;;;;;;;;;;22.19;52.88;99704.31;5335042;32;35579;-73
2023/05/15 08:31:09;;;;;;;;;;;;;;;23.05;50.33;99705.47;5346452;32;34137;-73
2023/05/15 08:34:12;;;;;;;;;;;;;;;22.95;49.69;99710.09;5320846;32;35811;-68
2023/05/15 08:37:13;;;;;;;;;;;;;;;21.13;55.19;99718.94;5306815;32;35262;-68
2023/05/15 08:40:15;;;;;;;;;;;;;;;20.67;57.55;99712.47;5330778;32;45488;-64
2023/05/15 08:43:36;;;;;;;;;;;;;;;21.44;55.31;99712.37;5336760;32;36627;-70
2023/05/15 08:46:37;;;;;;;;;;;;;;;20.60;57.23;99714.03;5339853;32;35328;-70
2023/05/15 08:49:59;;;;;;;;;;;;;;;21.65;54.44;99697.97;5324392;32;34898;-65
2023/05/15 08:53:01;;;;;;;;;;;;;;;19.99;59.80;99705.22;5327602;32;34451;-69
2023/05/15 08:56:03;;;;;;;;;;;;;;;20.31;60.07;99692.62;5325159;32;35911;-63
2023/05/15 08:59:05;;;;;;;;;;;;;;;20.81;58.44;99691.56;5347400;32;34525;-72
2023/05/15 09:02:07;;;;;;;;;;;;;;;21.14;57.82;99691.22;5329452;32;35565;-64
2023/05/15 09:05:10;;;;;;;;;;;;;;;19.97;59.55;99693.84;5334634;32;34446;-69
2023/05/15 09:08:12;;;;;;;;;;;;;;;21.22;57.05;99694.00;5341204;32;34310;-62
2023/05/15 09:11:14;;;;;;;;;;;;;;;20.82;57.15;99700.41;5336698;32;36028;-72
2023/05/15 09:14:16;;;;;;;;;;;;;;;20.95;56.76;99719.66;5339224;32;44486;-72
2023/05/15 09:17:19;;;;;;;;;;;;;;;20.48;57.28;99715.97;5334151;32;34471;-64
2023/05/15 09:20:32;;;;;;;;;;;;;;;19.65;59.06;99717.19;5326121;32;34421;-64
2023/05/15 09:23:34;;;;;;;;;;;;;;;20.44;57.11;99718.06;5340190;32;35809;-73
2023/05/15 09:26:36;;;;;;;;;;;;;;;21.32;52.24;99729.59;5310362;32;34778;-72
2023/05/15 09:29:42;;;;;;;;;;;;;;;19.64;57.65;99740.34;5337635;32;34302;-63
2023/05/15 09:32:43;;;;;;;;;;;;;;;20.35;55.70;99728.72;5338455;32;34162;-75
2023/05/15 09:35:46;;;;;;;;;;;;;;;21.62;51.19;99741.87;5322957;32;43619;-71
2023/05/15 09:38:48;;;;;;;;;;;;;;;21.61;52.79;99746.38;5311155;32;33895;-73
2023/05/15 09:41:50;;;;;;;;;;;;;;;22.39;50.22;99754.06;5336892;32;34651;-76
2023/05/15 09:44:52;;;;;;;;;;;;;;;23.04;47.18;99746.66;5336740;32;37013;-64
2023/05/15 09:47:56;;;;;;;;;;;;;;;21.59;50.01;99748.38;5321234;32;35099;-73
2023/05/15 09:50:58;;;;;;;;;;;;;;;22.75;48.93;99743.38;5336046;32;38437;-73
2023/05/15 09:54:00;;;;;;;;;;;;;;;23.58;46.66;99739.34;5325751;32;34251;-62
2023/05/15 09:57:09;;;;;;;;;;;;;;;23.49;45.60;99745.62;5343647;32;34958;-76
2023/05/15 10:00:11;;;;;;;;;;;;;;;22.79;48.73;99740.22;5311667;32;34781;-72
2023/05/15 10:03:17;;;;;;;;;;;;;;;23.77;45.75;99739.12;5327070;32;43889;-69
2023/05/15 10:06:20;;;;;;;;;;;;;;;24.27;44.03;99734.78;5330804;32;34139;-68
2023/05/15 10:09:22;;;;;;;;;;;;;;;23.30;47.08;99740.50;5331998;32;35339;-63
2023/05/15 10:12:24;;;;;;;;;;;;;;;22.36;47.64;99747.19;5325918;32;35901;-71
2023/05/15 10:15:26;;;;;;;;;;;;;;;22.69;47.04;99747.50;5331236;32;34831;-62
2023/05/15 10:18:31;;;;;;;;;;;;;;;22.46;48.47;99739.06;5332095;32;37055;-70
2023/05/15 10:21:35;;;;;;;;;;;;;;;22.32;49.27;99755.66;5318702;32;34514;-64
2023/05/15 10:24:37;;;;;;;;;;;;;;;22.77;48.28;99750.25;5338352;32;35914;-64
2023/05/15 10:27:41;;;;;;;;;;;;;;;21.35;52.17;99748.00;5340430;32;34596;-73
2023/05/15 10:30:44;;;;;;;;;;;;;;;22.36;48.30;99751.69;5323391;32;34318;-72
2023/05/15 10:33:50;;;;;;;;;;;;;;;22.27;48.07;99748.06;5340206;32;43949;-73
2023/05/15 10:36:57;;;;;;;;;;;;;;;22.02;49.03;99749.59;5312900;32;34747;-67
2023/05/15 10:40:01;;;;;;;;;;;;;;;20.36;53.55;99749.97;5338884;32;34461;-64
2023/05/15 10:43:04;;;;;;;;;;;;;;;20.10;54.18;99757.63;5320809;32;37638;-72
2023/05/15 10:46:06;;;;;;;;;;;;;;;21.27;50.76;99747.88;5309250;32;34429;-65
2023/05/15 10:49:08;;;;;;;;;;;;;;;21.31;50.40;99754.63;5321194;32;34326;-61
2023/05/15 10:52:14;;;;;;;;;;;;;;;20.86;50.78;99752.53;5334742;32;34929;-72
2023/05/15 10:55:19;;;;;;;;;;;;;;;21.32;49.27;99762.53;5345964;32;44015;-78
2023/05/15 10:58:22;;;;;;;;;;;;;;;22.84;45.96;99745.12;5336794;32;34125;-76
2023/05/15 11:01:27;;;;;;;;;;;;;;;22.04;47.69;99747.63;5340878;32;35364;-63
2023/05/15 11:04:30;;;;;;;;;;;;;;;22.99;45.31;99743.59;5341187;32;35149;-72
2023/05/15 11:07:32;;;;;;;;;;;;;;;22.65;46.62;99752.31;5321024;32;34453;-74
2023/05/15 11:10:35;;;;;;;;;;;;;;;23.40;45.40;99742.06;5324874;32;35700;-67
2023/05/15 11:13:59;;;;;;;;;;;;;;;22.64;46.40;99747.97;5335365;32;35498;-69
2023/05/15 11:17:05;;;;;;;;;;;;;;;22.88;47.08;99744.72;5331442;32;34988;-70
2023/05/15 11:20:08;;;;;;;;;;;;;;;23.59;44.45;99745.53;5333351;32;34291;-72
2023/05/15 11:23:10;;;;;;;;;;;;;;;24.15;43.45;99736.94;5319772;32;34395;-64
2023/05/15 11:26:14;;;;;;;;;;;;;;;24.83;41.67;99726.00;5343001;32;34598;-65
2023/05/15 11:29:18;;;;;;;;;;;;;;;25.61;39.59;99722.75;5319514;32;45052;-72
2023/05/15 11:32:39;;;;;;;;;;;;;;;23.35;43.48;99727.47;5340095;32;34401;-66
2023/05/15 11:35:42;;;;;;;;;;;;;;;23.65;43.17;99724.31;5319905;32;34821;-63
2023/05/15 11:38:44;;;;;;;;;;;;;;;24.81;40.35;99716.44;5332150;32;34230;-79
2023/05/15 11:41:46;;;;;;;;;;;;;;;24.32;41.39;99727.91;5338515;32;44772;-70
2023/05/15 11:44:50;;;;;;;;;;;;;;;22.40;45.32;99723.62;5327570;32;35209;-64
2023/05/15 11:47:52;;;;;;;;;;;;;;;23.10;44.64;99719.25;5316403;32;34597;-62
2023/05/15 11:50:54;;;;;;;;;;;;;;;22.77;44.18;99719.94;5331917;32;35399;-61
2023/05/15 11:53:56;;;;;;;;;;;;;;;22.74;45.34;99718.44;5342187;32;35169;-62
2023/05/15 11:56:58;;;;;;;;;;;;;;;24.23;40.74;99710.13;5315790;32;34277;-78
2023/05/15 12:00:00;;;;;;;;;;;;;;;23.35;42.73;99706.00;5323982;32;34414;-73
2023/05/15 12:03:02;;;;;;;;;;;;;;;22.95;44.46;99723.50;5337003;32;35468;-74
2023/05/15 12:06:07;;;;;;;;;;;;;;;23.43;43.66;99722.12;5331099;32;34417;-74
2023/05/15 12:09:13;;;;;;;;;;;;;;;22.60;45.35;99713.59;5327683;32;35466;-66
2023/05/15 12:12:16;;;;;;;;;;;;;;;22.11;46.84;99721.97;5329754;32;46039;-69
2023/05/15 12:15:18;;;;;;;;;;;;;;;22.85;45.02;99722.69;5339591;32;34212;-70
2023/05/15 12:18:21;;;;;;;;;;;;;;;22.86;45.45;99721.69;5337817;32;34378;-69
2023/05/15 12:21:25;;;;;;;;;;;;;;;22.67;44.76;99723.56;5329581;32;36626;-81
2023/05/15 12:24:29;;;;;;;;;;;;;;;22.59;45.38;99720.78;5342405;32;37416;-70
2023/05/15 12:27:31;;;;;;;;;;;;;;;21.96;47.83;99738.62;5338182;32;34534;-64
2023/05/15 12:30:33;;;;;;;;;;;;;;;23.18;44.53;99730.00;5326392;32;35675;-65
2023/05/15 12:33:38;;;;;;;;;;;;;;;21.84;47.98;99740.69;5329575;32;36109;-79
2023/05/15 12:36:40;;;;;;;;;;;;;;;23.37;44.63;99725.44;5316243;32;34294;-67
2023/05/15 12:39:49;;;;;;;;;;;;;;;22.17;47.46;99745.47;5332086;32;37461;-73
2023/05/15 12:42:55;;;;;;;;;;;;;;;23.34;44.54;99737.34;5334585;32;44696;-64
2023/05/15 12:45:57;;;;;;;;;;;;;;;23.70;44.32;99734.56;5339324;32;34266;-67
2023/05/15 12:48:59;;;;;;;;;;;;;;;22.39;47.77;99738.00;5317441;32;34366;-65
2023/05/15 12:52:08;;;;;;;;;;;;;;;22.59;47.92;99739.53;5328391;32;35517;-68
2023/05/15 12:55:14;;;;;;;;;;;;;;;21.82;48.44;99742.66;5338252;32;34229;-74
2023/05/15 12:58:17;;;;;;;;;;;;;;;21.20;50.82;99736.91;5333822;32;46178;-66
2023/05/15 13:01:20;;;;;;;;;;;;;;;21.20;51.65;99722.72;5339494;32;34242;-72
2023/05/15 13:04:23;;;;;;;;;;;;;;;20.93;52.27;99723.44;5323908;32;34530;-74
2023/05/15 13:07:25;;;;;;;;;;;;;;;21.79;50.66;99722.41;5343200;32;36148;-71
2023/05/15 13:10:27;;;;;;;;;;;;;;;21.26;51.79;99731.00;5335124;32;34304;-69
2023/05/15 13:13:59;;;;;;;;;;;;;;;21.44;51.46;99711.53;5337572;32;34447;-72
2023/05/15 13:17:02;;;;;;;;;;;;;;;20.99;52.17;99713.00;5326834;32;35094;-74
2023/05/15 13:20:04;;;;;;;;;;;;;;;21.40;51.09;99718.19;5333201;32;35455;-70
2023/05/15 13:23:07;;;;;;;;;;;;;;;21.98;49.15;99716.09;5319492;32;35083;-79
2023/05/15 13:26:09;;;;;;;;;;;;;;;21.66;50.42;99705.84;5318273;32;34623;-65
2023/05/15 13:29:11;;;;;;;;;;;;;;;21.61;50.70;99708.09;5337933;32;35535;-75
2023/05/15 13:32:13;;;;;;;;;;;;;;;21.88;49.80;99707.28;5317233;32;35937;-65
2023/05/15 13:35:15;;;;;;;;;;;;;;;21.56;50.25;99705.88;5317067;32;36071;-74
2023/05/15 13:38:18;;;;;;;;;;;;;;;21.60;49.95;99712.63;5310522;32;34325;-77
2023/05/15 13:41:20;;;;;;;;;;;;;;;21.57;50.37;99706.72;5321526;32;34636;-69
2023/05/15 13:44:21;;;;;;;;;;;;;;;21.31;51.09;99707.34;5331722;32;36512;-67
2023/05/15 13:47:25;;;;;;;;;;;;;;;22.31;48.10;99698.59;5320857;32;34846;-67
2023/05/15 13:50:30;;;;;;;;;;;;;;;21.21;50.63;99700.34;5321822;32;34575;-77
2023/05/15 13:53:32;;;;;;;;;;;;;;;20.55;52.19;99703.78;5324960;32;34518;-76
2023/05/15 13:56:34;;;;;;;;;;;;;;;20.24;52.77;99705.69;5323894;32;34115;-74
2023/05/15 13:59:36;;;;;;;;;;;;;;;20.68;51.36;99700.84;5339522;32;35627;-68
2023/05/15 14:02:38;;;;;;;;;;;;;;;21.07;50.00;99690.94;5319897;32;34839;-64
2023/05/15 14:05:40;;;;;;;;;;;;;;;20.84;49.97;99703.78;5340720;32;34362;-86
2023/05/15 14:08:43;;;;;;;;;;;;;;;21.66;48.87;99700.50;5337719;32;34967;-83
2023/05/15 14:12:39;;;;;;;;;;;;;;;20.54;51.27;99704.75;5427865;31;927901;-88
2023/05/15 14:15:41;;;;;;;;;;;;;;;20.98;50.19;99708.66;5435670;32;34448;-88
2023/05/15 14:18:44;;;;;;;;;;;;;;;20.66;50.54;99713.47;5434583;32;34639;-86
2023/05/15 14:21:46;;;;;;;;;;;;;;;19.88;52.51;99718.66;5424316;32;42697;-86
2023/05/15 14:24:49;;;;;;;;;;;;;;;19.38;54.14;99713.22;5440646;32;36264;-86
2023/05/15 14:27:51;;;;;;;;;;;;;;;19.93;52.78;99724.44;5428764;32;34547;-86
2023/05/15 14:30:53;;;;;;;;;;;;;;;19.48;54.01;99716.78;5430477;32;34039;-87
2023/05/15 14:33:56;;;;;;;;;;;;;;;20.61;51.08;99713.03;5434458;32;35250;-88
2023/05/15 14:37:00;;;;;;;;;;;;;;;20.72;50.87;99718.25;5422857;32;35303;-88
2023/05/15 14:40:03;;;;;;;;;;;;;;;20.75;50.63;99718.81;5423142;32;34759;-86
2023/05/15 14:43:06;;;;;;;;;;;;;;;20.43;51.00;99724.41;5442242;32;34584;-88
2023/05/15 14:46:08;;;;;;;;;;;;;;;21.21;49.48;99730.56;5443032;32;34945;-88
2023/05/15 14:49:12;;;;;;;;;;;;;;;20.30;51.29;99737.16;5470373;32;35657;-88
2023/05/15 14:52:23;;;;;;;;;;;;;;;20.58;51.00;99735.53;5432450;32;43253;-86
2023/05/15 14:55:25;;;;;;;;;;;;;;;21.44;50.36;99740.94;5472421;32;34777;-87
2023/05/15 14:58:28;;;;;;;;;;;;;;;21.69;51.11;99734.13;5469409;32;34150;-86
2023/05/15 15:01:30;;;;;;;;;;;;;;;21.60;53.20;99742.03;5469678;32;34214;-84
2023/05/15 15:04:34;;;;;;;;;;;;;;;21.40;54.74;99736.91;5463561;32;35872;-87
2023/05/15 15:07:57;;;;;;;;;;;;;;;20.93;56.88;99736.78;5461375;32;35866;-88
2023/05/15 15:11:00;;;;;;;;;;;;;;;20.87;57.20;99740.06;5484742;32;34653;-90
2023/05/15 15:14:02;;;;;;;;;;;;;;;20.71;57.69;99748.59;5462496;32;35456;-87
2023/05/15 15:17:04;;;;;;;;;;;;;;;20.33;59.10;99747.53;5442145;32;34278;-87
2023/05/15 15:20:10;;;;;;;;;;;;;;;19.88;60.24;99758.66;5471018;32;35439;-88
2023/05/15 15:23:12;;;;;;;;;;;;;;;20.76;58.21;99757.06;5458666;32;35596;-87
2023/05/15 15:26:14;;;;;;;;;;;;;;;20.40;58.76;99767.38;5438838;32;36302;-86
2023/05/15 15:29:19;;;;;;;;;;;;;;;20.52;58.43;99766.28;5442530;32;45043;-84
2023/05/15 15:32:21;;;;;;;;;;;;;;;20.35;59.14;99776.75;5451346;32;38757;-86
2023/05/15 15:35:24;;;;;;;;;;;;;;;20.77;57.70;99772.94;5436283;32;35135;-88
2023/05/15 15:38:26;;;;;;;;;;;;;;;20.94;55.95;99767.88;5406523;32;34918;-87
2023/05/15 15:41:31;;;;;;;;;;;;;;;20.69;57.62;99770.13;5434771;32;34050;-88
2023/05/15 15:44:33;;;;;;;;;;;;;;;21.32;55.64;99759.84;5438629;32;37103;-88
2023/05/15 15:47:35;;;;;;;;;;;;;;;20.22;57.70;99769.88;5423867;32;35125;-88
2023/05/15 15:50:37;;;;;;;;;;;;;;;20.06;58.68;99766.88;5414595;32;34771;-90
2023/05/15 15:53:42;;;;;;;;;;;;;;;21.06;54.38;99777.44;5416313;32;35116;-90
2023/05/15 15:56:44;;;;;;;;;;;;;;;20.74;55.89;99767.03;5432381;32;36440;-89